createdAt,value
2017-11-13T00:00:08.999Z,8.93
2017-11-13T00:02:34.960Z,8.90
2017-11-13T00:05:00.939Z,8.79
2017-11-13T00:07:26.947Z,8.82
2017-11-13T00:09:52.878Z,8.75
2017-11-13T00:12:18.815Z,8.91
2017-11-13T00:14:44.773Z,8.78
2017-11-13T00:17:10.722Z,8.53
2017-11-13T00:19:36.660Z,8.70
2017-11-13T00:22:02.602Z,8.57
2017-11-13T00:24:28.544Z,8.96
2017-11-13T00:26:54.532Z,8.82
2017-11-13T00:29:20.483Z,8.80
2017-11-13T00:31:46.426Z,8.78
2017-11-13T00:34:12.404Z,8.42
2017-11-13T00:36:38.329Z,8.56
2017-11-13T00:39:04.253Z,8.36
2017-11-13T00:41:30.210Z,8.58
2017-11-13T00:43:56.177Z,8.55
2017-11-13T00:46:22.108Z,8.27
2017-11-13T00:48:48.043Z,8.33
2017-11-13T00:51:14.081Z,8.32
2017-11-13T00:53:40.040Z,8.32
2017-11-13T00:56:05.985Z,8.29
2017-11-13T00:58:31.928Z,8.47
2017-11-13T01:00:57.906Z,8.27
2017-11-13T01:03:23.867Z,8.08
2017-11-13T01:05:49.826Z,8.26
2017-11-13T01:08:15.749Z,8.38
2017-11-13T01:10:41.930Z,8.62
2017-11-13T01:13:07.904Z,8.49
2017-11-13T01:15:33.824Z,8.47
2017-11-13T01:17:59.760Z,8.16
2017-11-13T01:20:25.728Z,8.48
2017-11-13T01:22:51.658Z,8.46
2017-11-13T01:25:17.602Z,8.61
2017-11-13T01:27:43.556Z,8.68
2017-11-13T01:30:09.488Z,8.45
2017-11-13T01:32:35.427Z,8.48
2017-11-13T01:35:01.374Z,8.48
2017-11-13T01:37:27.329Z,8.63
2017-11-13T01:39:53.264Z,8.54
2017-11-13T01:42:19.227Z,8.59
2017-11-13T01:44:45.154Z,8.61
2017-11-13T01:47:11.100Z,8.57
2017-11-13T01:49:37.038Z,8.89
2017-11-13T01:52:02.980Z,8.80
2017-11-13T01:54:28.907Z,8.69
2017-11-13T01:56:54.835Z,8.55
2017-11-13T01:59:20.777Z,8.43
2017-11-13T02:01:46.733Z,8.66
2017-11-13T02:04:12.682Z,8.75
2017-11-13T02:06:38.629Z,8.73
2017-11-13T02:09:04.580Z,8.73
2017-11-13T02:11:30.513Z,8.76
2017-11-13T02:13:56.450Z,8.61
2017-11-13T02:16:22.387Z,8.57
2017-11-13T02:18:48.326Z,8.51
2017-11-13T02:21:14.288Z,8.56
2017-11-13T02:23:40.334Z,8.53
2017-11-13T02:26:06.284Z,8.84
2017-11-13T02:28:32.233Z,8.78
2017-11-13T02:30:58.168Z,8.64
2017-11-13T02:33:24.097Z,8.83
2017-11-13T02:35:50.053Z,8.92
2017-11-13T02:38:16.019Z,8.51
2017-11-13T02:40:41.949Z,8.51
2017-11-13T02:43:07.876Z,8.69
2017-11-13T02:45:33.819Z,8.72
2017-11-13T02:47:59.787Z,8.65
2017-11-13T02:50:25.751Z,8.54
2017-11-13T02:52:51.716Z,8.92
2017-11-13T02:55:17.666Z,8.69
2017-11-13T02:57:43.614Z,8.74
2017-11-13T03:00:09.591Z,8.75
2017-11-13T03:02:35.535Z,8.72
2017-11-13T03:05:01.469Z,8.72
2017-11-13T03:07:27.427Z,8.77
2017-11-13T03:09:53.391Z,8.84
2017-11-13T03:12:19.327Z,8.79
2017-11-13T03:14:45.271Z,8.64
2017-11-13T03:17:11.213Z,8.75
2017-11-13T03:19:37.183Z,8.92
2017-11-13T03:22:03.126Z,9.11
2017-11-13T03:24:29.055Z,9.15
2017-11-13T03:26:55.015Z,8.87
2017-11-13T03:29:20.970Z,8.82
2017-11-13T03:31:46.908Z,8.86
2017-11-13T03:34:12.847Z,8.85
2017-11-13T03:36:38.824Z,8.84
2017-11-13T03:39:04.807Z,8.96
2017-11-13T03:41:30.753Z,8.93
2017-11-13T03:43:56.696Z,8.91
2017-11-13T03:46:22.635Z,8.85
2017-11-13T03:48:48.587Z,8.85
2017-11-13T03:51:14.523Z,8.87
2017-11-13T03:53:40.497Z,8.89
2017-11-13T03:56:06.446Z,8.92
2017-11-13T03:58:32.395Z,8.95
2017-11-13T04:00:58.351Z,8.93
2017-11-13T04:03:24.299Z,8.85
2017-11-13T04:05:50.223Z,8.54
2017-11-13T04:08:16.161Z,8.64
2017-11-13T04:10:42.107Z,8.64
2017-11-13T04:13:08.040Z,8.74
2017-11-13T04:15:34.021Z,8.77
2017-11-13T04:17:59.989Z,8.93
2017-11-13T04:20:25.921Z,8.77
2017-11-13T04:22:51.876Z,8.78
2017-11-13T04:25:17.819Z,8.97
2017-11-13T04:27:43.751Z,8.91
2017-11-13T04:30:09.699Z,8.75
2017-11-13T04:32:35.635Z,8.90
2017-11-13T04:35:01.584Z,8.63
2017-11-13T04:37:27.533Z,8.69
2017-11-13T04:39:53.510Z,8.75
2017-11-13T04:42:19.482Z,8.60
2017-11-13T04:44:45.447Z,8.76
2017-11-13T04:47:11.373Z,8.78
2017-11-13T04:49:37.300Z,8.84
2017-11-13T04:52:03.232Z,8.86
2017-11-13T04:54:29.184Z,8.78
2017-11-13T04:56:55.265Z,8.78
2017-11-13T04:59:21.195Z,8.77
2017-11-13T05:01:47.177Z,9.04
2017-11-13T05:04:13.115Z,8.86
2017-11-13T05:06:39.094Z,8.93
2017-11-13T05:09:05.066Z,8.90
2017-11-13T05:11:30.989Z,8.81
2017-11-13T05:13:56.934Z,8.75
2017-11-13T05:16:22.935Z,8.68
2017-11-13T05:18:48.885Z,8.66
2017-11-13T05:21:14.820Z,8.71
2017-11-13T05:23:40.768Z,8.54
2017-11-13T05:26:06.691Z,8.74
2017-11-13T05:28:32.666Z,8.62
2017-11-13T05:30:58.617Z,8.76
2017-11-13T05:33:24.575Z,8.63
2017-11-13T05:35:51.170Z,8.45
2017-11-13T05:38:17.136Z,8.40
2017-11-13T05:40:43.095Z,8.60
2017-11-13T05:43:09.049Z,8.56
2017-11-13T05:45:34.982Z,8.51
2017-11-13T05:48:00.913Z,8.56
2017-11-13T05:50:26.853Z,8.53
2017-11-13T05:52:52.813Z,8.74
2017-11-13T05:55:18.748Z,8.84
2017-11-13T05:57:44.695Z,8.58
2017-11-13T06:00:10.661Z,8.55
2017-11-13T06:02:36.616Z,8.67
2017-11-13T06:05:02.562Z,8.74
2017-11-13T06:07:28.516Z,8.82
2017-11-13T06:09:54.459Z,8.85
2017-11-13T06:12:20.437Z,8.89
2017-11-13T06:14:46.413Z,8.65
2017-11-13T06:17:12.364Z,8.78
2017-11-13T06:19:38.331Z,8.82
2017-11-13T06:22:04.311Z,8.70
2017-11-13T06:24:30.246Z,8.79
2017-11-13T06:26:56.213Z,8.76
2017-11-13T06:29:22.198Z,8.84
2017-11-13T06:31:48.147Z,8.98
2017-11-13T06:34:14.072Z,8.70
2017-11-13T06:36:40.026Z,8.60
2017-11-13T06:39:05.963Z,8.87
2017-11-13T06:41:31.892Z,8.69
2017-11-13T06:43:57.837Z,8.71
2017-11-13T06:46:23.795Z,8.72
2017-11-13T06:48:49.753Z,8.76
2017-11-13T06:51:15.685Z,8.65
2017-11-13T06:53:41.662Z,8.88
2017-11-13T06:56:07.638Z,9.23
2017-11-13T06:58:33.603Z,9.00
2017-11-13T07:00:59.545Z,8.76
2017-11-13T07:03:25.489Z,8.90
2017-11-13T07:05:51.459Z,8.80
2017-11-13T07:08:17.391Z,9.08
2017-11-13T07:10:43.319Z,8.91
2017-11-13T07:13:09.284Z,8.84
2017-11-13T07:15:35.279Z,8.67
2017-11-13T07:18:01.308Z,8.94
2017-11-13T07:20:27.265Z,8.89
2017-11-13T07:22:53.249Z,8.92
2017-11-13T07:25:19.200Z,8.92
2017-11-13T07:27:45.145Z,8.86
2017-11-13T07:30:11.081Z,8.84
2017-11-13T07:32:37.027Z,8.94
2017-11-13T07:35:02.999Z,9.03
2017-11-13T07:37:28.953Z,8.89
2017-11-13T07:39:54.923Z,8.87
2017-11-13T07:42:20.859Z,8.93
2017-11-13T07:44:46.819Z,9.05
2017-11-13T07:47:12.755Z,9.04
2017-11-13T07:49:38.733Z,9.05
2017-11-13T07:52:04.716Z,9.08
2017-11-13T07:54:30.643Z,9.11
2017-11-13T07:56:56.591Z,9.09
2017-11-13T07:59:22.541Z,8.95
2017-11-13T08:01:48.515Z,9.12
2017-11-13T08:04:14.535Z,8.90
2017-11-13T08:06:40.597Z,9.33
2017-11-13T08:09:06.570Z,9.15
2017-11-13T08:11:32.529Z,9.05
2017-11-13T08:13:58.483Z,9.38
2017-11-13T08:16:24.438Z,9.27
2017-11-13T08:18:50.392Z,9.53
2017-11-13T08:21:16.344Z,9.30
2017-11-13T08:23:42.283Z,8.83
2017-11-13T08:26:08.218Z,9.19
2017-11-13T08:28:34.170Z,9.65
2017-11-13T08:31:00.103Z,9.57
2017-11-13T08:33:26.057Z,9.40
2017-11-13T08:35:52.011Z,9.28
2017-11-13T08:38:17.948Z,9.64
2017-11-13T08:40:43.892Z,9.59
2017-11-13T08:43:09.875Z,9.18
2017-11-13T08:45:35.859Z,9.17
2017-11-13T08:48:01.839Z,9.10
2017-11-13T08:50:27.818Z,9.10
2017-11-13T08:52:53.765Z,9.36
2017-11-13T08:55:19.696Z,9.74
2017-11-13T08:57:45.641Z,9.76
2017-11-13T09:00:11.592Z,9.97
2017-11-13T09:02:37.543Z,9.90
2017-11-13T09:05:03.495Z,9.70
2017-11-13T09:07:29.487Z,9.64
2017-11-13T09:09:55.436Z,9.94
2017-11-13T09:12:21.379Z,9.86
2017-11-13T09:14:47.309Z,9.52
2017-11-13T09:17:13.273Z,9.60
2017-11-13T09:19:39.196Z,9.56
2017-11-13T09:22:05.166Z,9.44
2017-11-13T09:24:31.111Z,9.90
2017-11-13T09:26:57.098Z,9.95
2017-11-13T09:29:23.085Z,9.93
2017-11-13T09:31:49.006Z,9.55
2017-11-13T09:34:14.981Z,9.35
2017-11-13T09:36:40.945Z,9.20
2017-11-13T09:39:06.889Z,9.60
2017-11-13T09:41:32.871Z,9.55
2017-11-13T09:43:58.842Z,9.81
2017-11-13T09:46:24.796Z,9.76
2017-11-13T09:48:50.755Z,9.37
2017-11-13T09:51:16.735Z,9.16
2017-11-13T09:53:42.680Z,9.47
2017-11-13T09:56:08.611Z,9.50
2017-11-13T09:58:34.565Z,9.54
2017-11-13T10:01:00.497Z,9.72
2017-11-13T10:03:26.476Z,9.62
2017-11-13T10:05:52.485Z,9.73
2017-11-13T10:08:18.478Z,9.70
2017-11-13T10:10:44.436Z,9.58
2017-11-13T10:13:10.406Z,9.53
2017-11-13T10:15:36.373Z,9.82
2017-11-13T10:18:02.338Z,9.69
2017-11-13T10:20:28.338Z,10.06
2017-11-13T10:22:54.331Z,9.78
2017-11-13T10:25:20.344Z,9.53
2017-11-13T10:27:46.283Z,9.86
2017-11-13T10:30:12.387Z,9.94
2017-11-13T10:32:38.411Z,10.11
2017-11-13T10:35:04.369Z,10.03
2017-11-13T10:37:30.293Z,10.07
2017-11-13T10:39:56.243Z,9.94
2017-11-13T10:42:22.189Z,9.62
2017-11-13T10:44:48.144Z,9.38
2017-11-13T10:47:14.099Z,9.51
2017-11-13T10:49:40.041Z,9.64
2017-11-13T10:52:06.201Z,9.69
2017-11-13T10:54:32.153Z,9.55
2017-11-13T10:56:58.099Z,9.55
2017-11-13T10:59:24.049Z,9.53
2017-11-13T11:01:50.009Z,9.50
2017-11-13T11:04:15.965Z,9.44
2017-11-13T11:06:41.918Z,9.47
2017-11-13T11:09:07.931Z,9.52
2017-11-13T11:11:33.884Z,9.63
2017-11-13T11:13:59.818Z,9.63
2017-11-13T11:16:25.754Z,9.61
2017-11-13T11:18:51.737Z,9.60
2017-11-13T11:21:17.689Z,9.19
2017-11-13T11:23:43.639Z,9.52
2017-11-13T11:26:09.592Z,9.50
2017-11-13T11:28:35.532Z,9.53
2017-11-13T11:31:01.882Z,9.41
2017-11-13T11:33:27.837Z,9.51
2017-11-13T11:35:53.783Z,9.41
2017-11-13T11:38:19.715Z,9.72
2017-11-13T11:40:45.689Z,9.57
2017-11-13T11:43:11.651Z,9.65
2017-11-13T11:45:37.651Z,9.54
2017-11-13T11:48:03.656Z,9.65
2017-11-13T11:50:29.601Z,9.68
2017-11-13T11:52:55.560Z,9.59
2017-11-13T11:55:21.483Z,9.52
2017-11-13T11:57:47.435Z,9.67
2017-11-13T12:00:13.374Z,9.61
2017-11-13T12:02:39.373Z,9.65
2017-11-13T12:05:05.324Z,9.62
2017-11-13T12:07:31.325Z,9.61
2017-11-13T12:09:57.275Z,9.71
2017-11-13T12:12:23.223Z,9.54
2017-11-13T12:14:49.207Z,9.83
2017-11-13T12:17:15.160Z,9.65
2017-11-13T12:19:41.173Z,9.64
2017-11-13T12:22:07.151Z,9.64
2017-11-13T12:24:33.115Z,9.63
2017-11-13T12:26:59.090Z,9.70
2017-11-13T12:29:25.048Z,9.68
2017-11-13T12:31:51.009Z,9.70
2017-11-13T12:34:16.980Z,9.73
2017-11-13T12:36:42.946Z,9.66
2017-11-13T12:39:08.890Z,9.57
2017-11-13T12:41:34.842Z,9.55
2017-11-13T12:44:00.792Z,9.60
2017-11-13T12:46:26.742Z,9.67
2017-11-13T12:48:52.749Z,9.67
2017-11-13T12:51:18.693Z,9.58
2017-11-13T12:53:44.677Z,9.55
2017-11-13T12:56:10.656Z,9.63
2017-11-13T12:58:36.601Z,9.56
2017-11-13T13:01:02.590Z,9.55
2017-11-13T13:03:28.523Z,9.58
2017-11-13T13:05:54.496Z,9.62
2017-11-13T13:08:20.457Z,9.58
2017-11-13T13:10:46.392Z,9.72
2017-11-13T13:13:12.372Z,9.58
2017-11-13T13:15:38.359Z,9.63
2017-11-13T13:18:04.332Z,9.64
2017-11-13T13:20:30.374Z,9.58
2017-11-13T13:22:56.384Z,9.67
2017-11-13T13:25:22.362Z,9.54
2017-11-13T13:27:48.311Z,9.49
2017-11-13T13:30:14.286Z,9.54
2017-11-13T13:32:40.235Z,9.51
2017-11-13T13:35:06.170Z,9.53
2017-11-13T13:37:32.124Z,9.65
2017-11-13T13:39:58.079Z,9.63
2017-11-13T13:42:24.071Z,9.53
2017-11-13T13:44:50.000Z,9.55
2017-11-13T13:47:15.947Z,9.65
2017-11-13T13:49:41.880Z,9.62
2017-11-13T13:52:07.832Z,9.62
2017-11-13T13:54:35.728Z,9.58
2017-11-13T13:57:01.678Z,9.63
2017-11-13T13:59:27.625Z,9.56
2017-11-13T14:01:53.586Z,9.56
2017-11-13T14:04:19.532Z,9.49
2017-11-13T14:06:45.494Z,9.64
2017-11-13T14:09:11.552Z,9.48
2017-11-13T14:11:37.540Z,9.52
2017-11-13T14:14:03.526Z,9.63
2017-11-13T14:16:29.468Z,9.65
2017-11-13T14:18:55.424Z,9.72
2017-11-13T14:21:21.365Z,9.62
2017-11-13T14:23:47.332Z,9.55
2017-11-13T14:26:13.312Z,9.74
2017-11-13T14:28:39.311Z,9.64
2017-11-13T14:31:05.263Z,9.54
2017-11-13T14:33:31.196Z,9.58
2017-11-13T14:35:57.136Z,9.65
2017-11-13T14:38:23.158Z,9.63
2017-11-13T14:40:49.080Z,9.69
2017-11-13T14:43:15.009Z,9.54
2017-11-13T14:45:40.946Z,9.60
2017-11-13T14:48:06.902Z,9.60
2017-11-13T14:50:32.880Z,9.66
2017-11-13T14:52:58.861Z,9.66
2017-11-13T14:55:24.798Z,9.60
2017-11-13T14:57:50.758Z,9.68
2017-11-13T15:00:16.728Z,9.76
2017-11-13T15:02:42.702Z,9.64
2017-11-13T15:05:08.660Z,9.74
2017-11-13T15:07:34.588Z,9.83
2017-11-13T15:10:00.568Z,9.75
2017-11-13T15:12:26.553Z,9.71
2017-11-13T15:14:52.517Z,9.91
2017-11-13T15:17:18.506Z,9.87
2017-11-13T15:19:44.496Z,9.89
2017-11-13T15:22:10.434Z,9.73
2017-11-13T15:24:36.384Z,9.82
2017-11-13T15:27:02.380Z,9.83
2017-11-13T15:29:28.340Z,9.83
2017-11-13T15:31:54.328Z,9.89
2017-11-13T15:34:20.279Z,9.64
2017-11-13T15:36:46.208Z,9.77
2017-11-13T15:39:12.167Z,9.79
2017-11-13T15:41:38.125Z,9.73
2017-11-13T15:44:04.096Z,9.80
2017-11-13T15:46:30.295Z,9.87
2017-11-13T15:48:56.235Z,9.85
2017-11-13T15:51:22.193Z,9.79
2017-11-13T15:53:48.142Z,9.76
2017-11-13T15:56:14.080Z,9.72
2017-11-13T15:58:40.034Z,9.83
2017-11-13T16:01:05.985Z,9.79
2017-11-13T16:03:31.950Z,9.79
2017-11-13T16:05:57.891Z,9.78
2017-11-13T16:08:23.827Z,9.81
2017-11-13T16:10:49.817Z,9.73
2017-11-13T16:13:15.760Z,9.69
2017-11-13T16:15:41.710Z,9.39
2017-11-13T16:18:07.681Z,9.56
2017-11-13T16:20:33.638Z,9.46
2017-11-13T16:22:59.651Z,9.49
2017-11-13T16:25:25.647Z,9.64
2017-11-13T16:27:51.712Z,9.69
2017-11-13T16:30:17.673Z,9.49
2017-11-13T16:32:43.620Z,9.46
2017-11-13T16:35:09.671Z,9.53
2017-11-13T16:37:35.650Z,9.56
2017-11-13T16:40:01.716Z,9.58
2017-11-13T16:42:27.705Z,9.70
2017-11-13T16:44:53.689Z,9.57
2017-11-13T16:47:19.647Z,9.54
2017-11-13T16:49:45.826Z,9.39
2017-11-13T16:52:11.783Z,9.52
2017-11-13T16:54:37.767Z,9.40
2017-11-13T16:57:03.719Z,9.45
2017-11-13T16:59:29.663Z,9.46
2017-11-13T17:01:55.656Z,9.52
2017-11-13T17:04:21.635Z,9.43
2017-11-13T17:06:47.614Z,9.48
2017-11-13T17:09:13.613Z,9.58
2017-11-13T17:11:39.579Z,9.74
2017-11-13T17:14:05.533Z,9.58
2017-11-13T17:16:31.473Z,9.50
2017-11-13T17:18:57.416Z,9.38
2017-11-13T17:21:23.432Z,9.28
2017-11-13T17:23:49.387Z,9.37
2017-11-13T17:26:17.098Z,9.40
2017-11-13T17:28:43.066Z,9.24
2017-11-13T17:31:09.010Z,9.31
2017-11-13T17:33:34.950Z,9.41
2017-11-13T17:36:00.886Z,9.58
2017-11-13T17:38:26.852Z,9.50
2017-11-13T17:40:52.824Z,9.46
2017-11-13T17:43:18.751Z,9.41
2017-11-13T17:45:44.747Z,9.40
2017-11-13T17:48:10.683Z,9.52
2017-11-13T17:50:36.643Z,9.57
2017-11-13T17:53:02.634Z,9.58
2017-11-13T17:55:28.605Z,9.68
2017-11-13T17:57:54.577Z,9.65
2017-11-13T18:00:20.544Z,9.57
2017-11-13T18:02:46.506Z,9.39
2017-11-13T18:05:12.445Z,9.50
2017-11-13T18:07:38.387Z,9.28
2017-11-13T18:10:04.364Z,9.57
2017-11-13T18:12:30.325Z,9.72
2017-11-13T18:14:56.308Z,9.46
2017-11-13T18:17:22.280Z,9.26
2017-11-13T18:19:48.227Z,9.52
2017-11-13T18:22:14.159Z,9.38
2017-11-13T18:24:40.141Z,9.33
2017-11-13T18:27:06.087Z,9.31
2017-11-13T18:29:32.045Z,9.26
2017-11-13T18:31:58.014Z,9.35
2017-11-13T18:34:23.985Z,9.27
2017-11-13T18:36:49.938Z,9.04
2017-11-13T18:39:15.904Z,9.19
2017-11-13T18:41:41.858Z,9.33
2017-11-13T18:44:07.830Z,9.30
2017-11-13T18:46:33.776Z,9.29
2017-11-13T18:48:59.747Z,9.27
2017-11-13T18:51:25.709Z,9.15
2017-11-13T18:53:51.679Z,9.08
2017-11-13T18:56:17.633Z,9.11
2017-11-13T18:58:43.646Z,9.35
2017-11-13T19:01:09.765Z,9.23
2017-11-13T19:03:35.704Z,9.22
2017-11-13T19:06:01.666Z,9.16
2017-11-13T19:08:27.619Z,9.18
2017-11-13T19:10:53.560Z,9.14
2017-11-13T19:13:19.497Z,9.22
2017-11-13T19:15:45.441Z,9.28
2017-11-13T19:18:11.413Z,9.47
2017-11-13T19:20:37.346Z,9.20
2017-11-13T19:23:03.298Z,9.19
2017-11-13T19:25:29.236Z,9.25
2017-11-13T19:27:56.022Z,9.27
2017-11-13T19:30:21.967Z,9.27
2017-11-13T19:32:47.927Z,9.37
2017-11-13T19:35:13.902Z,9.32
2017-11-13T19:37:39.882Z,9.23
2017-11-13T19:40:06.047Z,9.10
2017-11-13T19:42:32.063Z,9.16
2017-11-13T19:44:58.039Z,9.17
2017-11-13T19:47:24.014Z,9.13
2017-11-13T19:49:49.963Z,9.31
2017-11-13T19:52:15.991Z,9.66
2017-11-13T19:54:41.982Z,9.94
2017-11-13T19:57:07.972Z,9.75
2017-11-13T19:59:33.956Z,9.75
2017-11-13T20:01:59.918Z,9.90
2017-11-13T20:04:25.862Z,9.46
2017-11-13T20:06:51.821Z,9.52
2017-11-13T20:09:17.761Z,9.33
2017-11-13T20:11:43.777Z,9.33
2017-11-13T20:14:09.760Z,9.27
2017-11-13T20:16:35.731Z,9.30
2017-11-13T20:19:01.674Z,9.36
2017-11-13T20:21:27.624Z,9.33
2017-11-13T20:23:53.605Z,9.40
2017-11-13T20:26:19.558Z,9.28
2017-11-13T20:28:45.514Z,9.09
2017-11-13T20:31:11.446Z,9.15
2017-11-13T20:33:37.398Z,9.21
2017-11-13T20:36:03.351Z,9.25
2017-11-13T20:38:29.501Z,9.13
2017-11-13T20:40:55.436Z,9.00
2017-11-13T20:43:21.380Z,8.80
2017-11-13T20:45:48.378Z,8.98
2017-11-13T20:48:14.349Z,8.84
2017-11-13T20:50:40.529Z,9.11
2017-11-13T20:53:06.569Z,9.01
2017-11-13T20:55:32.516Z,9.01
2017-11-13T20:57:58.470Z,9.07
2017-11-13T21:03:06.085Z,8.83
2017-11-13T21:05:33.045Z,9.07
2017-11-13T21:07:59.095Z,9.08
2017-11-13T21:10:25.047Z,8.89
2017-11-13T21:12:50.984Z,8.94
2017-11-13T21:15:16.930Z,8.71
2017-11-13T21:17:42.878Z,8.72
2017-11-13T21:20:08.821Z,8.73
2017-11-13T21:22:35.642Z,8.62
2017-11-13T21:25:01.581Z,8.74
2017-11-13T21:27:27.561Z,8.71
2017-11-13T21:29:53.590Z,8.99
2017-11-13T21:32:19.552Z,8.98
2017-11-13T21:34:45.731Z,8.94
2017-11-13T21:37:11.683Z,8.91
2017-11-13T21:39:37.626Z,8.52
2017-11-13T21:42:03.594Z,8.88
2017-11-13T21:44:29.547Z,8.76
2017-11-13T21:46:55.512Z,9.12
2017-11-13T21:49:21.501Z,8.65
2017-11-13T21:51:47.460Z,8.11
2017-11-13T21:54:15.429Z,8.61
2017-11-13T21:56:43.429Z,8.72
2017-11-13T21:59:09.382Z,8.58
2017-11-13T22:04:06.745Z,8.58
2017-11-13T22:09:03.951Z,8.55
2017-11-13T22:11:29.910Z,8.62
2017-11-13T22:13:55.840Z,8.57
2017-11-13T22:16:26.772Z,8.46
2017-11-13T22:18:52.721Z,8.26
2017-11-13T22:21:18.660Z,8.34
2017-11-13T22:23:46.512Z,8.40
2017-11-13T22:26:14.474Z,8.55
2017-11-13T22:28:40.463Z,8.60
2017-11-13T22:31:06.397Z,8.51
2017-11-13T22:33:32.341Z,8.56
2017-11-13T22:35:59.188Z,8.44
2017-11-13T22:38:25.134Z,8.52
2017-11-13T22:40:51.103Z,8.62
2017-11-13T22:43:17.030Z,8.75
2017-11-13T22:45:42.977Z,8.52
2017-11-13T22:48:08.928Z,8.56
2017-11-13T22:50:34.868Z,8.52
2017-11-13T22:53:00.813Z,8.40
2017-11-13T22:55:26.744Z,8.56
2017-11-13T22:57:52.691Z,8.53
2017-11-13T23:00:18.622Z,8.57
2017-11-13T23:02:44.569Z,8.33
2017-11-13T23:05:10.550Z,8.63
2017-11-13T23:07:36.488Z,8.32
2017-11-13T23:10:02.431Z,8.28
2017-11-13T23:12:28.359Z,8.47
2017-11-13T23:14:54.285Z,8.50
2017-11-13T23:17:20.225Z,8.58
2017-11-13T23:19:46.164Z,8.32
2017-11-13T23:22:12.092Z,8.63
2017-11-13T23:24:38.017Z,8.60
2017-11-13T23:27:03.960Z,8.39
2017-11-13T23:29:29.909Z,8.69
2017-11-13T23:31:55.856Z,8.39
2017-11-13T23:34:21.787Z,8.16
2017-11-13T23:36:47.720Z,8.14
2017-11-13T23:39:13.648Z,8.19
2017-11-13T23:41:39.577Z,8.34
2017-11-13T23:44:05.521Z,8.32
2017-11-13T23:46:31.444Z,8.27
2017-11-13T23:48:57.415Z,8.32
2017-11-13T23:51:23.351Z,8.27
2017-11-13T23:53:49.304Z,8.19
2017-11-13T23:56:15.256Z,8.27
2017-11-13T23:58:41.201Z,8.24
